sensor_id;sensor_type;location;lat;lon;timestamp;P1;durP1;ratioP1;P2;durP2;ratioP2
11396;SDS011;5754;43.726;7.416;2023-05-18T00:01:42;0.70;;;0.60;;
11396;SDS011;5754;43.726;7.416;2023-05-18T00:04:20;0.73;;;0.73;;
11396;SDS011;5754;43.726;7.416;2023-05-18T00:06:59;0.93;;;0.70;;
11396;SDS011;5754;43.726;7.416;2023-05-18T00:09:38;1.27;;;0.67;;
11396;SDS011;5754;43.726;7.416;2023-05-18T00:12:14;1.13;;;0.60;;
11396;SDS011;5754;43.726;7.416;2023-05-18T00:14:49;0.60;;;0.60;;
11396;SDS011;5754;43.726;7.416;2023-05-18T00:17:24;0.90;;;0.80;;
11396;SDS011;5754;43.726;7.416;2023-05-18T00:19:59;0.67;;;0.67;;
11396;SDS011;5754;43.726;7.416;2023-05-18T00:22:34;0.70;;;0.70;;
11396;SDS011;5754;43.726;7.416;2023-05-18T00:25:10;0.60;;;0.60;;
11396;SDS011;5754;43.726;7.416;2023-05-18T00:27:44;0.90;;;0.63;;
11396;SDS011;5754;43.726;7.416;2023-05-18T00:30:21;1.83;;;0.50;;
11396;SDS011;5754;43.726;7.416;2023-05-18T00:32:58;1.33;;;0.77;;
11396;SDS011;5754;43.726;7.416;2023-05-18T00:35:32;1.03;;;0.70;;
11396;SDS011;5754;43.726;7.416;2023-05-18T00:38:07;0.80;;;0.60;;
11396;SDS011;5754;43.726;7.416;2023-05-18T00:40:43;0.57;;;0.53;;
11396;SDS011;5754;43.726;7.416;2023-05-18T00:43:19;1.00;;;0.90;;
11396;SDS011;5754;43.726;7.416;2023-05-18T00:45:58;0.77;;;0.77;;
11396;SDS011;5754;43.726;7.416;2023-05-18T00:48:33;0.60;;;0.57;;
11396;SDS011;5754;43.726;7.416;2023-05-18T00:51:07;0.97;;;0.40;;
11396;SDS011;5754;43.726;7.416;2023-05-18T00:53:41;0.50;;;0.50;;
11396;SDS011;5754;43.726;7.416;2023-05-18T00:56:17;1.53;;;0.50;;
11396;SDS011;5754;43.726;7.416;2023-05-18T00:58:55;0.90;;;0.60;;
11396;SDS011;5754;43.726;7.416;2023-05-18T01:01:30;0.60;;;0.60;;
11396;SDS011;5754;43.726;7.416;2023-05-18T01:04:08;0.97;;;0.70;;
11396;SDS011;5754;43.726;7.416;2023-05-18T01:06:47;0.50;;;0.50;;
11396;SDS011;5754;43.726;7.416;2023-05-18T01:09:22;0.57;;;0.43;;
11396;SDS011;5754;43.726;7.416;2023-05-18T01:12:24;0.63;;;0.57;;
11396;SDS011;5754;43.726;7.416;2023-05-18T01:15:12;1.43;;;0.43;;
11396;SDS011;5754;43.726;7.416;2023-05-18T01:18:03;0.60;;;0.60;;
11396;SDS011;5754;43.726;7.416;2023-05-18T01:20:46;0.70;;;0.40;;
11396;SDS011;5754;43.726;7.416;2023-05-18T01:23:28;0.53;;;0.53;;
11396;SDS011;5754;43.726;7.416;2023-05-18T01:26:43;1.00;;;0.50;;
11396;SDS011;5754;43.726;7.416;2023-05-18T01:29:20;0.70;;;0.60;;
11396;SDS011;5754;43.726;7.416;2023-05-18T01:31:55;0.50;;;0.50;;
11396;SDS011;5754;43.726;7.416;2023-05-18T01:34:30;0.87;;;0.60;;
11396;SDS011;5754;43.726;7.416;2023-05-18T01:37:05;0.60;;;0.60;;
11396;SDS011;5754;43.726;7.416;2023-05-18T01:39:41;0.60;;;0.60;;
11396;SDS011;5754;43.726;7.416;2023-05-18T01:42:18;0.50;;;0.50;;
11396;SDS011;5754;43.726;7.416;2023-05-18T01:44:59;0.57;;;0.50;;
11396;SDS011;5754;43.726;7.416;2023-05-18T01:47:39;0.80;;;0.70;;
11396;SDS011;5754;43.726;7.416;2023-05-18T01:50:21;1.13;;;0.70;;
11396;SDS011;5754;43.726;7.416;2023-05-18T01:53:07;0.63;;;0.63;;
11396;SDS011;5754;43.726;7.416;2023-05-18T01:55:43;0.70;;;0.60;;
11396;SDS011;5754;43.726;7.416;2023-05-18T01:58:20;0.73;;;0.67;;
11396;SDS011;5754;43.726;7.416;2023-05-18T02:00:56;0.93;;;0.70;;
11396;SDS011;5754;43.726;7.416;2023-05-18T02:03:32;0.73;;;0.60;;
11396;SDS011;5754;43.726;7.416;2023-05-18T02:06:07;0.67;;;0.60;;
11396;SDS011;5754;43.726;7.416;2023-05-18T02:08:42;0.60;;;0.60;;
11396;SDS011;5754;43.726;7.416;2023-05-18T02:11:17;0.60;;;0.60;;
11396;SDS011;5754;43.726;7.416;2023-05-18T02:13:52;1.30;;;0.50;;
11396;SDS011;5754;43.726;7.416;2023-05-18T02:16:27;0.70;;;0.70;;
11396;SDS011;5754;43.726;7.416;2023-05-18T02:19:04;0.53;;;0.53;;
11396;SDS011;5754;43.726;7.416;2023-05-18T02:21:39;0.73;;;0.60;;
11396;SDS011;5754;43.726;7.416;2023-05-18T02:24:16;0.73;;;0.60;;
11396;SDS011;5754;43.726;7.416;2023-05-18T02:26:51;0.47;;;0.47;;
11396;SDS011;5754;43.726;7.416;2023-05-18T02:29:26;1.03;;;0.70;;
11396;SDS011;5754;43.726;7.416;2023-05-18T02:32:02;4.10;;;0.70;;
11396;SDS011;5754;43.726;7.416;2023-05-18T02:34:37;0.97;;;0.77;;
11396;SDS011;5754;43.726;7.416;2023-05-18T02:37:15;1.60;;;0.77;;
11396;SDS011;5754;43.726;7.416;2023-05-18T02:39:49;2.70;;;0.90;;
11396;SDS011;5754;43.726;7.416;2023-05-18T02:42:26;2.00;;;0.60;;
11396;SDS011;5754;43.726;7.416;2023-05-18T02:45:01;0.87;;;0.60;;
11396;SDS011;5754;43.726;7.416;2023-05-18T02:47:36;2.90;;;0.80;;
11396;SDS011;5754;43.726;7.416;2023-05-18T02:50:12;4.07;;;1.27;;
11396;SDS011;5754;43.726;7.416;2023-05-18T02:52:47;0.60;;;0.60;;
11396;SDS011;5754;43.726;7.416;2023-05-18T02:55:22;1.80;;;0.70;;
11396;SDS011;5754;43.726;7.416;2023-05-18T02:58:08;0.87;;;0.77;;
11396;SDS011;5754;43.726;7.416;2023-05-18T03:01:04;1.37;;;0.80;;
11396;SDS011;5754;43.726;7.416;2023-05-18T03:03:46;0.77;;;0.60;;
11396;SDS011;5754;43.726;7.416;2023-05-18T03:06:22;4.03;;;0.67;;
11396;SDS011;5754;43.726;7.416;2023-05-18T03:09:00;1.90;;;0.70;;
11396;SDS011;5754;43.726;7.416;2023-05-18T03:11:45;0.90;;;0.53;;
11396;SDS011;5754;43.726;7.416;2023-05-18T03:14:21;2.70;;;0.70;;
11396;SDS011;5754;43.726;7.416;2023-05-18T03:16:55;0.73;;;0.70;;
11396;SDS011;5754;43.726;7.416;2023-05-18T03:19:31;1.27;;;0.83;;
11396;SDS011;5754;43.726;7.416;2023-05-18T03:22:07;0.50;;;0.50;;
11396;SDS011;5754;43.726;7.416;2023-05-18T03:24:45;1.03;;;0.80;;
11396;SDS011;5754;43.726;7.416;2023-05-18T03:27:23;0.60;;;0.60;;
11396;SDS011;5754;43.726;7.416;2023-05-18T03:29:59;0.83;;;0.80;;
11396;SDS011;5754;43.726;7.416;2023-05-18T03:32:35;0.63;;;0.63;;
11396;SDS011;5754;43.726;7.416;2023-05-18T03:35:12;1.53;;;0.90;;
11396;SDS011;5754;43.726;7.416;2023-05-18T03:37:47;1.50;;;0.70;;
11396;SDS011;5754;43.726;7.416;2023-05-18T03:40:22;1.00;;;0.90;;
11396;SDS011;5754;43.726;7.416;2023-05-18T03:42:58;0.97;;;0.80;;
11396;SDS011;5754;43.726;7.416;2023-05-18T03:45:33;0.63;;;0.63;;
11396;SDS011;5754;43.726;7.416;2023-05-18T03:48:08;0.70;;;0.70;;
11396;SDS011;5754;43.726;7.416;2023-05-18T03:50:45;0.77;;;0.77;;
11396;SDS011;5754;43.726;7.416;2023-05-18T03:53:22;1.83;;;0.80;;
11396;SDS011;5754;43.726;7.416;2023-05-18T03:55:57;0.67;;;0.67;;
11396;SDS011;5754;43.726;7.416;2023-05-18T03:58:33;1.60;;;0.90;;
11396;SDS011;5754;43.726;7.416;2023-05-18T04:01:07;3.47;;;0.90;;
11396;SDS011;5754;43.726;7.416;2023-05-18T04:03:42;0.97;;;0.80;;
11396;SDS011;5754;43.726;7.416;2023-05-18T04:06:18;2.63;;;0.63;;
11396;SDS011;5754;43.726;7.416;2023-05-18T04:08:55;0.60;;;0.60;;
11396;SDS011;5754;43.726;7.416;2023-05-18T04:11:31;0.70;;;0.70;;
11396;SDS011;5754;43.726;7.416;2023-05-18T04:14:07;1.23;;;0.80;;
11396;SDS011;5754;43.726;7.416;2023-05-18T04:16:42;0.70;;;0.70;;
11396;SDS011;5754;43.726;7.416;2023-05-18T04:19:18;1.00;;;0.90;;
11396;SDS011;5754;43.726;7.416;2023-05-18T04:21:54;0.80;;;0.80;;
11396;SDS011;5754;43.726;7.416;2023-05-18T04:24:29;2.20;;;1.03;;
11396;SDS011;5754;43.726;7.416;2023-05-18T04:27:05;1.00;;;0.83;;
11396;SDS011;5754;43.726;7.416;2023-05-18T04:29:42;1.63;;;0.70;;
11396;SDS011;5754;43.726;7.416;2023-05-18T04:32:17;1.90;;;1.03;;
11396;SDS011;5754;43.726;7.416;2023-05-18T04:34:53;2.10;;;0.80;;
11396;SDS011;5754;43.726;7.416;2023-05-18T04:37:31;0.80;;;0.80;;
11396;SDS011;5754;43.726;7.416;2023-05-18T04:40:11;0.80;;;0.80;;
11396;SDS011;5754;43.726;7.416;2023-05-18T04:42:54;0.70;;;0.70;;
11396;SDS011;5754;43.726;7.416;2023-05-18T04:45:31;1.60;;;1.03;;
11396;SDS011;5754;43.726;7.416;2023-05-18T04:48:07;4.50;;;1.00;;
11396;SDS011;5754;43.726;7.416;2023-05-18T04:50:41;1.43;;;0.83;;
11396;SDS011;5754;43.726;7.416;2023-05-18T04:53:18;1.97;;;1.33;;
11396;SDS011;5754;43.726;7.416;2023-05-18T04:55:52;1.57;;;0.97;;
11396;SDS011;5754;43.726;7.416;2023-05-18T04:58:27;1.00;;;0.90;;
11396;SDS011;5754;43.726;7.416;2023-05-18T05:01:03;1.43;;;1.10;;
11396;SDS011;5754;43.726;7.416;2023-05-18T05:03:42;0.87;;;0.87;;
11396;SDS011;5754;43.726;7.416;2023-05-18T05:06:19;0.83;;;0.83;;
11396;SDS011;5754;43.726;7.416;2023-05-18T05:08:53;1.60;;;0.80;;
11396;SDS011;5754;43.726;7.416;2023-05-18T05:11:29;1.20;;;0.90;;
11396;SDS011;5754;43.726;7.416;2023-05-18T05:14:05;2.73;;;0.93;;
11396;SDS011;5754;43.726;7.416;2023-05-18T05:16:39;1.70;;;0.90;;
11396;SDS011;5754;43.726;7.416;2023-05-18T05:19:15;1.33;;;0.90;;
11396;SDS011;5754;43.726;7.416;2023-05-18T05:21:49;1.10;;;0.90;;
11396;SDS011;5754;43.726;7.416;2023-05-18T05:24:25;2.50;;;0.80;;
11396;SDS011;5754;43.726;7.416;2023-05-18T05:27:00;2.10;;;1.00;;
11396;SDS011;5754;43.726;7.416;2023-05-18T05:29:35;2.07;;;1.00;;
11396;SDS011;5754;43.726;7.416;2023-05-18T05:32:11;2.93;;;1.07;;
11396;SDS011;5754;43.726;7.416;2023-05-18T05:34:46;1.63;;;0.90;;
11396;SDS011;5754;43.726;7.416;2023-05-18T05:37:23;1.87;;;0.80;;
11396;SDS011;5754;43.726;7.416;2023-05-18T05:39:59;2.10;;;1.00;;
11396;SDS011;5754;43.726;7.416;2023-05-18T05:42:38;2.07;;;0.70;;
11396;SDS011;5754;43.726;7.416;2023-05-18T05:45:14;1.33;;;0.90;;
11396;SDS011;5754;43.726;7.416;2023-05-18T05:47:51;3.90;;;1.00;;
11396;SDS011;5754;43.726;7.416;2023-05-18T05:50:28;2.00;;;1.80;;
11396;SDS011;5754;43.726;7.416;2023-05-18T05:53:06;4.70;;;3.87;;
11396;SDS011;5754;43.726;7.416;2023-05-18T05:55:46;4.63;;;2.87;;
11396;SDS011;5754;43.726;7.416;2023-05-18T05:58:22;1.30;;;1.20;;
11396;SDS011;5754;43.726;7.416;2023-05-18T06:01:01;2.40;;;0.70;;
11396;SDS011;5754;43.726;7.416;2023-05-18T06:03:35;1.40;;;0.67;;
11396;SDS011;5754;43.726;7.416;2023-05-18T06:06:12;1.03;;;0.80;;
11396;SDS011;5754;43.726;7.416;2023-05-18T06:08:46;3.03;;;0.67;;
11396;SDS011;5754;43.726;7.416;2023-05-18T06:11:23;5.03;;;0.97;;
11396;SDS011;5754;43.726;7.416;2023-05-18T06:13:58;1.20;;;0.90;;
11396;SDS011;5754;43.726;7.416;2023-05-18T06:16:34;1.13;;;0.90;;
11396;SDS011;5754;43.726;7.416;2023-05-18T06:19:09;1.17;;;0.90;;
11396;SDS011;5754;43.726;7.416;2023-05-18T06:21:44;0.93;;;0.70;;
11396;SDS011;5754;43.726;7.416;2023-05-18T06:24:20;1.00;;;0.70;;
11396;SDS011;5754;43.726;7.416;2023-05-18T06:28:16;3.47;;;1.00;;
11396;SDS011;5754;43.726;7.416;2023-05-18T06:31:00;1.00;;;0.70;;
11396;SDS011;5754;43.726;7.416;2023-05-18T06:33:49;0.90;;;0.90;;
11396;SDS011;5754;43.726;7.416;2023-05-18T06:36:24;1.80;;;1.10;;
11396;SDS011;5754;43.726;7.416;2023-05-18T06:38:59;0.70;;;0.60;;
11396;SDS011;5754;43.726;7.416;2023-05-18T06:41:36;2.37;;;0.67;;
11396;SDS011;5754;43.726;7.416;2023-05-18T06:44:11;0.60;;;0.60;;
11396;SDS011;5754;43.726;7.416;2023-05-18T06:47:07;1.97;;;1.00;;
11396;SDS011;5754;43.726;7.416;2023-05-18T06:49:42;1.80;;;0.80;;
11396;SDS011;5754;43.726;7.416;2023-05-18T06:52:17;1.00;;;0.83;;
11396;SDS011;5754;43.726;7.416;2023-05-18T06:54:52;2.83;;;0.87;;
11396;SDS011;5754;43.726;7.416;2023-05-18T06:57:28;1.93;;;0.80;;
11396;SDS011;5754;43.726;7.416;2023-05-18T07:00:03;1.53;;;0.87;;
11396;SDS011;5754;43.726;7.416;2023-05-18T07:02:40;3.70;;;0.90;;
11396;SDS011;5754;43.726;7.416;2023-05-18T07:05:17;1.37;;;0.90;;
11396;SDS011;5754;43.726;7.416;2023-05-18T07:07:52;0.70;;;0.70;;
11396;SDS011;5754;43.726;7.416;2023-05-18T07:10:26;1.00;;;0.70;;
11396;SDS011;5754;43.726;7.416;2023-05-18T07:13:01;3.13;;;0.80;;
11396;SDS011;5754;43.726;7.416;2023-05-18T07:15:36;1.50;;;1.07;;
11396;SDS011;5754;43.726;7.416;2023-05-18T07:18:10;1.77;;;1.00;;
11396;SDS011;5754;43.726;7.416;2023-05-18T07:20:46;1.63;;;0.80;;
11396;SDS011;5754;43.726;7.416;2023-05-18T07:23:21;1.30;;;0.80;;
11396;SDS011;5754;43.726;7.416;2023-05-18T07:25:56;1.83;;;1.13;;
11396;SDS011;5754;43.726;7.416;2023-05-18T07:28:31;1.37;;;0.60;;
11396;SDS011;5754;43.726;7.416;2023-05-18T07:31:06;2.87;;;0.70;;
11396;SDS011;5754;43.726;7.416;2023-05-18T07:33:41;1.43;;;0.70;;
11396;SDS011;5754;43.726;7.416;2023-05-18T07:36:16;0.87;;;0.70;;
11396;SDS011;5754;43.726;7.416;2023-05-18T07:38:51;1.43;;;0.70;;
11396;SDS011;5754;43.726;7.416;2023-05-18T07:41:28;2.20;;;0.90;;
11396;SDS011;5754;43.726;7.416;2023-05-18T07:44:04;0.80;;;0.80;;
11396;SDS011;5754;43.726;7.416;2023-05-18T07:46:39;0.80;;;0.70;;
11396;SDS011;5754;43.726;7.416;2023-05-18T07:49:14;1.50;;;0.70;;
11396;SDS011;5754;43.726;7.416;2023-05-18T07:51:49;0.70;;;0.70;;
11396;SDS011;5754;43.726;7.416;2023-05-18T07:54:25;1.67;;;0.80;;
11396;SDS011;5754;43.726;7.416;2023-05-18T07:56:59;0.70;;;0.70;;
11396;SDS011;5754;43.726;7.416;2023-05-18T07:59:34;1.00;;;0.70;;
11396;SDS011;5754;43.726;7.416;2023-05-18T08:02:08;1.23;;;0.90;;
11396;SDS011;5754;43.726;7.416;2023-05-18T08:04:44;1.67;;;0.90;;
11396;SDS011;5754;43.726;7.416;2023-05-18T08:07:18;1.07;;;0.90;;
11396;SDS011;5754;43.726;7.416;2023-05-18T08:09:54;1.17;;;0.77;;
11396;SDS011;5754;43.726;7.416;2023-05-18T08:12:29;1.43;;;0.83;;
11396;SDS011;5754;43.726;7.416;2023-05-18T08:15:04;1.63;;;1.10;;
11396;SDS011;5754;43.726;7.416;2023-05-18T08:17:39;1.60;;;0.70;;
11396;SDS011;5754;43.726;7.416;2023-05-18T08:20:13;1.43;;;0.70;;
11396;SDS011;5754;43.726;7.416;2023-05-18T08:22:49;1.37;;;0.60;;
11396;SDS011;5754;43.726;7.416;2023-05-18T08:25:24;2.20;;;0.80;;
11396;SDS011;5754;43.726;7.416;2023-05-18T08:27:59;1.10;;;0.80;;
11396;SDS011;5754;43.726;7.416;2023-05-18T08:30:34;0.70;;;0.70;;
11396;SDS011;5754;43.726;7.416;2023-05-18T08:33:09;1.55;;;0.90;;
11396;SDS011;5754;43.726;7.416;2023-05-18T08:35:45;0.97;;;0.80;;
11396;SDS011;5754;43.726;7.416;2023-05-18T08:38:20;2.13;;;0.80;;
11396;SDS011;5754;43.726;7.416;2023-05-18T08:40:57;1.80;;;0.90;;
11396;SDS011;5754;43.726;7.416;2023-05-18T08:43:32;0.60;;;0.60;;
11396;SDS011;5754;43.726;7.416;2023-05-18T08:46:12;0.53;;;0.53;;
11396;SDS011;5754;43.726;7.416;2023-05-18T08:48:50;1.13;;;0.80;;
11396;SDS011;5754;43.726;7.416;2023-05-18T08:51:32;2.03;;;0.90;;
11396;SDS011;5754;43.726;7.416;2023-05-18T08:54:07;0.80;;;0.80;;
11396;SDS011;5754;43.726;7.416;2023-05-18T08:56:44;1.63;;;0.90;;
11396;SDS011;5754;43.726;7.416;2023-05-18T08:59:23;1.93;;;0.80;;
11396;SDS011;5754;43.726;7.416;2023-05-18T09:01:58;0.88;;;0.75;;
11396;SDS011;5754;43.726;7.416;2023-05-18T09:04:33;3.40;;;0.80;;
11396;SDS011;5754;43.726;7.416;2023-05-18T09:07:09;2.03;;;0.80;;
11396;SDS011;5754;43.726;7.416;2023-05-18T09:09:47;0.70;;;0.70;;
11396;SDS011;5754;43.726;7.416;2023-05-18T09:12:22;2.33;;;0.90;;
11396;SDS011;5754;43.726;7.416;2023-05-18T09:14:57;0.80;;;0.70;;
11396;SDS011;5754;43.726;7.416;2023-05-18T09:17:33;0.70;;;0.70;;
11396;SDS011;5754;43.726;7.416;2023-05-18T09:20:09;0.70;;;0.70;;
11396;SDS011;5754;43.726;7.416;2023-05-18T09:22:44;0.87;;;0.77;;
11396;SDS011;5754;43.726;7.416;2023-05-18T09:25:21;0.90;;;0.80;;
11396;SDS011;5754;43.726;7.416;2023-05-18T09:27:57;3.25;;;1.00;;
11396;SDS011;5754;43.726;7.416;2023-05-18T09:30:38;2.05;;;0.75;;
11396;SDS011;5754;43.726;7.416;2023-05-18T09:33:19;1.50;;;0.60;;
11396;SDS011;5754;43.726;7.416;2023-05-18T09:35:57;1.35;;;0.80;;
11396;SDS011;5754;43.726;7.416;2023-05-18T09:38:39;0.80;;;0.80;;
11396;SDS011;5754;43.726;7.416;2023-05-18T09:41:17;0.70;;;0.70;;
11396;SDS011;5754;43.726;7.416;2023-05-18T09:43:53;1.02;;;0.85;;
11396;SDS011;5754;43.726;7.416;2023-05-18T09:46:30;1.45;;;1.00;;
11396;SDS011;5754;43.726;7.416;2023-05-18T09:49:06;1.92;;;1.08;;
11396;SDS011;5754;43.726;7.416;2023-05-18T09:51:41;1.27;;;1.00;;
11396;SDS011;5754;43.726;7.416;2023-05-18T09:54:16;4.12;;;2.22;;
11396;SDS011;5754;43.726;7.416;2023-05-18T09:56:50;19.98;;;7.57;;
11396;SDS011;5754;43.726;7.416;2023-05-18T09:59:32;26.90;;;10.23;;
11396;SDS011;5754;43.726;7.416;2023-05-18T10:02:11;11.60;;;3.78;;
11396;SDS011;5754;43.726;7.416;2023-05-18T10:04:46;2.93;;;1.67;;
11396;SDS011;5754;43.726;7.416;2023-05-18T10:07:21;1.67;;;0.93;;
11396;SDS011;5754;43.726;7.416;2023-05-18T10:10:01;1.13;;;1.03;;
11396;SDS011;5754;43.726;7.416;2023-05-18T10:12:37;1.47;;;1.00;;
11396;SDS011;5754;43.726;7.416;2023-05-18T10:15:15;2.33;;;0.80;;
11396;SDS011;5754;43.726;7.416;2023-05-18T10:17:50;2.17;;;0.90;;
11396;SDS011;5754;43.726;7.416;2023-05-18T10:20:26;1.10;;;0.90;;
11396;SDS011;5754;43.726;7.416;2023-05-18T10:23:00;2.23;;;1.00;;
11396;SDS011;5754;43.726;7.416;2023-05-18T10:25:40;0.90;;;0.80;;
11396;SDS011;5754;43.726;7.416;2023-05-18T10:28:17;1.25;;;1.00;;
11396;SDS011;5754;43.726;7.416;2023-05-18T10:30:59;1.00;;;0.80;;
11396;SDS011;5754;43.726;7.416;2023-05-18T10:33:34;1.30;;;0.87;;
11396;SDS011;5754;43.726;7.416;2023-05-18T10:36:10;3.35;;;0.73;;
11396;SDS011;5754;43.726;7.416;2023-05-18T10:38:45;2.10;;;0.77;;
11396;SDS011;5754;43.726;7.416;2023-05-18T10:41:20;2.42;;;1.37;;
11396;SDS011;5754;43.726;7.416;2023-05-18T10:43:59;3.53;;;2.00;;
11396;SDS011;5754;43.726;7.416;2023-05-18T10:46:36;2.93;;;1.40;;
11396;SDS011;5754;43.726;7.416;2023-05-18T10:49:11;1.67;;;1.08;;
11396;SDS011;5754;43.726;7.416;2023-05-18T10:51:48;1.90;;;1.10;;
11396;SDS011;5754;43.726;7.416;2023-05-18T10:54:22;1.50;;;1.10;;
11396;SDS011;5754;43.726;7.416;2023-05-18T10:56:58;1.57;;;1.10;;
11396;SDS011;5754;43.726;7.416;2023-05-18T10:59:36;1.63;;;1.43;;
11396;SDS011;5754;43.726;7.416;2023-05-18T11:02:14;1.33;;;1.10;;
11396;SDS011;5754;43.726;7.416;2023-05-18T11:04:48;3.42;;;1.10;;
11396;SDS011;5754;43.726;7.416;2023-05-18T11:07:26;1.55;;;0.95;;
11396;SDS011;5754;43.726;7.416;2023-05-18T11:10:06;1.02;;;0.93;;
11396;SDS011;5754;43.726;7.416;2023-05-18T11:12:41;2.37;;;1.00;;
11396;SDS011;5754;43.726;7.416;2023-05-18T11:15:14;2.75;;;1.10;;
11396;SDS011;5754;43.726;7.416;2023-05-18T11:18:11;1.08;;;0.90;;
11396;SDS011;5754;43.726;7.416;2023-05-18T11:20:45;3.37;;;1.12;;
11396;SDS011;5754;43.726;7.416;2023-05-18T11:23:19;3.62;;;1.37;;
11396;SDS011;5754;43.726;7.416;2023-05-18T11:25:58;3.20;;;2.90;;
11396;SDS011;5754;43.726;7.416;2023-05-18T11:28:41;2.28;;;1.40;;
11396;SDS011;5754;43.726;7.416;2023-05-18T11:31:16;3.65;;;1.30;;
11396;SDS011;5754;43.726;7.416;2023-05-18T11:33:52;2.95;;;1.20;;
11396;SDS011;5754;43.726;7.416;2023-05-18T11:36:26;2.50;;;1.10;;
11396;SDS011;5754;43.726;7.416;2023-05-18T11:39:04;1.85;;;1.30;;
11396;SDS011;5754;43.726;7.416;2023-05-18T11:41:43;1.35;;;1.10;;
11396;SDS011;5754;43.726;7.416;2023-05-18T11:44:21;3.78;;;1.40;;
11396;SDS011;5754;43.726;7.416;2023-05-18T11:47:01;1.60;;;1.50;;
11396;SDS011;5754;43.726;7.416;2023-05-18T11:49:44;2.40;;;1.67;;
11396;SDS011;5754;43.726;7.416;2023-05-18T11:52:22;1.55;;;1.17;;
11396;SDS011;5754;43.726;7.416;2023-05-18T11:54:57;3.22;;;1.40;;
11396;SDS011;5754;43.726;7.416;2023-05-18T11:57:38;2.95;;;1.12;;
11396;SDS011;5754;43.726;7.416;2023-05-18T12:00:12;1.87;;;1.15;;
11396;SDS011;5754;43.726;7.416;2023-05-18T12:02:50;2.65;;;1.20;;
11396;SDS011;5754;43.726;7.416;2023-05-18T12:05:24;2.85;;;1.30;;
11396;SDS011;5754;43.726;7.416;2023-05-18T12:08:03;3.53;;;1.50;;
11396;SDS011;5754;43.726;7.416;2023-05-18T12:10:37;2.90;;;1.58;;
11396;SDS011;5754;43.726;7.416;2023-05-18T12:13:12;1.27;;;1.17;;
11396;SDS011;5754;43.726;7.416;2023-05-18T12:15:46;2.20;;;1.15;;
11396;SDS011;5754;43.726;7.416;2023-05-18T12:18:19;4.05;;;1.52;;
11396;SDS011;5754;43.726;7.416;2023-05-18T12:20:54;1.92;;;1.17;;
11396;SDS011;5754;43.726;7.416;2023-05-18T12:23:35;3.08;;;1.45;;
11396;SDS011;5754;43.726;7.416;2023-05-18T12:26:10;2.65;;;1.50;;
11396;SDS011;5754;43.726;7.416;2023-05-18T12:28:44;4.15;;;1.70;;
11396;SDS011;5754;43.726;7.416;2023-05-18T12:31:18;1.77;;;1.20;;
11396;SDS011;5754;43.726;7.416;2023-05-18T12:33:53;2.90;;;1.40;;
11396;SDS011;5754;43.726;7.416;2023-05-18T12:36:28;3.28;;;1.48;;
11396;SDS011;5754;43.726;7.416;2023-05-18T12:39:02;1.50;;;1.20;;
11396;SDS011;5754;43.726;7.416;2023-05-18T12:41:37;2.97;;;1.60;;
11396;SDS011;5754;43.726;7.416;2023-05-18T12:44:11;1.77;;;1.30;;
11396;SDS011;5754;43.726;7.416;2023-05-18T12:46:46;5.47;;;1.67;;
11396;SDS011;5754;43.726;7.416;2023-05-18T12:49:20;2.87;;;1.67;;
11396;SDS011;5754;43.726;7.416;2023-05-18T12:51:55;2.80;;;1.40;;
11396;SDS011;5754;43.726;7.416;2023-05-18T12:54:30;3.45;;;1.45;;
11396;SDS011;5754;43.726;7.416;2023-05-18T12:57:05;3.08;;;1.60;;
11396;SDS011;5754;43.726;7.416;2023-05-18T12:59:46;4.78;;;1.85;;
11396;SDS011;5754;43.726;7.416;2023-05-18T13:02:32;3.33;;;1.52;;
11396;SDS011;5754;43.726;7.416;2023-05-18T13:05:07;5.45;;;1.70;;
11396;SDS011;5754;43.726;7.416;2023-05-18T13:07:44;4.28;;;1.50;;
11396;SDS011;5754;43.726;7.416;2023-05-18T13:10:18;3.60;;;1.40;;
11396;SDS011;5754;43.726;7.416;2023-05-18T13:12:56;3.43;;;1.50;;
11396;SDS011;5754;43.726;7.416;2023-05-18T13:15:36;4.97;;;1.70;;
11396;SDS011;5754;43.726;7.416;2023-05-18T13:18:10;3.90;;;1.80;;
11396;SDS011;5754;43.726;7.416;2023-05-18T13:20:45;3.50;;;1.80;;
11396;SDS011;5754;43.726;7.416;2023-05-18T13:23:23;4.20;;;1.60;;
11396;SDS011;5754;43.726;7.416;2023-05-18T13:25:58;4.20;;;1.60;;
11396;SDS011;5754;43.726;7.416;2023-05-18T13:28:33;6.43;;;1.90;;
11396;SDS011;5754;43.726;7.416;2023-05-18T13:31:08;4.72;;;1.70;;
11396;SDS011;5754;43.726;7.416;2023-05-18T13:33:44;5.20;;;1.90;;
11396;SDS011;5754;43.726;7.416;2023-05-18T13:36:19;3.67;;;1.90;;
11396;SDS011;5754;43.726;7.416;2023-05-18T13:38:53;2.17;;;1.77;;
11396;SDS011;5754;43.726;7.416;2023-05-18T13:41:31;5.00;;;1.77;;
11396;SDS011;5754;43.726;7.416;2023-05-18T13:44:07;4.75;;;1.80;;
11396;SDS011;5754;43.726;7.416;2023-05-18T13:46:42;3.57;;;1.47;;
11396;SDS011;5754;43.726;7.416;2023-05-18T13:49:16;3.60;;;1.65;;
11396;SDS011;5754;43.726;7.416;2023-05-18T13:51:51;5.87;;;1.60;;
11396;SDS011;5754;43.726;7.416;2023-05-18T13:54:25;5.83;;;2.00;;
11396;SDS011;5754;43.726;7.416;2023-05-18T13:56:59;5.40;;;1.70;;
11396;SDS011;5754;43.726;7.416;2023-05-18T13:59:33;3.27;;;1.80;;
11396;SDS011;5754;43.726;7.416;2023-05-18T14:02:09;6.10;;;1.73;;
11396;SDS011;5754;43.726;7.416;2023-05-18T14:04:43;6.80;;;1.92;;
11396;SDS011;5754;43.726;7.416;2023-05-18T14:07:19;7.80;;;1.83;;
11396;SDS011;5754;43.726;7.416;2023-05-18T14:09:55;4.80;;;2.20;;
11396;SDS011;5754;43.726;7.416;2023-05-18T14:12:30;4.60;;;1.90;;
11396;SDS011;5754;43.726;7.416;2023-05-18T14:15:04;3.60;;;1.90;;
11396;SDS011;5754;43.726;7.416;2023-05-18T14:17:39;4.80;;;1.90;;
11396;SDS011;5754;43.726;7.416;2023-05-18T14:20:13;10.57;;;1.97;;
11396;SDS011;5754;43.726;7.416;2023-05-18T14:22:47;5.27;;;2.00;;
11396;SDS011;5754;43.726;7.416;2023-05-18T14:25:21;4.50;;;2.03;;
11396;SDS011;5754;43.726;7.416;2023-05-18T14:27:56;4.47;;;1.93;;
11396;SDS011;5754;43.726;7.416;2023-05-18T14:30:30;4.83;;;2.00;;
11396;SDS011;5754;43.726;7.416;2023-05-18T14:33:05;11.20;;;2.30;;
11396;SDS011;5754;43.726;7.416;2023-05-18T14:35:39;5.47;;;1.90;;
11396;SDS011;5754;43.726;7.416;2023-05-18T14:38:15;3.22;;;1.73;;
11396;SDS011;5754;43.726;7.416;2023-05-18T14:40:48;2.85;;;1.60;;
11396;SDS011;5754;43.726;7.416;2023-05-18T14:43:22;5.90;;;1.80;;
11396;SDS011;5754;43.726;7.416;2023-05-18T14:45:57;4.45;;;2.15;;
11396;SDS011;5754;43.726;7.416;2023-05-18T14:48:40;7.30;;;2.07;;
11396;SDS011;5754;43.726;7.416;2023-05-18T14:51:14;4.65;;;1.77;;
11396;SDS011;5754;43.726;7.416;2023-05-18T14:53:50;4.80;;;2.45;;
11396;SDS011;5754;43.726;7.416;2023-05-18T14:56:24;4.73;;;1.90;;
11396;SDS011;5754;43.726;7.416;2023-05-18T14:58:59;4.35;;;1.92;;
11396;SDS011;5754;43.726;7.416;2023-05-18T15:01:33;6.05;;;1.87;;
11396;SDS011;5754;43.726;7.416;2023-05-18T15:04:08;3.67;;;1.80;;
11396;SDS011;5754;43.726;7.416;2023-05-18T15:06:42;5.93;;;1.85;;
11396;SDS011;5754;43.726;7.416;2023-05-18T15:09:16;2.58;;;1.60;;
11396;SDS011;5754;43.726;7.416;2023-05-18T15:11:51;7.15;;;1.95;;
11396;SDS011;5754;43.726;7.416;2023-05-18T15:14:25;4.43;;;1.77;;
11396;SDS011;5754;43.726;7.416;2023-05-18T15:17:00;5.40;;;1.90;;
11396;SDS011;5754;43.726;7.416;2023-05-18T15:19:34;4.20;;;2.03;;
11396;SDS011;5754;43.726;7.416;2023-05-18T15:24:52;4.40;;;1.90;;
11396;SDS011;5754;43.726;7.416;2023-05-18T15:27:26;4.43;;;2.20;;
11396;SDS011;5754;43.726;7.416;2023-05-18T15:30:03;4.00;;;1.90;;
11396;SDS011;5754;43.726;7.416;2023-05-18T15:32:43;3.70;;;2.00;;
11396;SDS011;5754;43.726;7.416;2023-05-18T15:35:17;7.63;;;2.10;;
11396;SDS011;5754;43.726;7.416;2023-05-18T15:37:52;4.33;;;2.10;;
11396;SDS011;5754;43.726;7.416;2023-05-18T15:40:25;2.37;;;1.60;;
11396;SDS011;5754;43.726;7.416;2023-05-18T15:43:03;7.40;;;2.20;;
11396;SDS011;5754;43.726;7.416;2023-05-18T15:45:38;2.90;;;1.70;;
11396;SDS011;5754;43.726;7.416;2023-05-18T15:48:12;3.07;;;2.10;;
11396;SDS011;5754;43.726;7.416;2023-05-18T15:50:47;6.43;;;2.60;;
11396;SDS011;5754;43.726;7.416;2023-05-18T15:53:20;6.20;;;1.90;;
11396;SDS011;5754;43.726;7.416;2023-05-18T15:55:55;2.17;;;1.70;;
11396;SDS011;5754;43.726;7.416;2023-05-18T15:58:30;3.30;;;1.83;;
11396;SDS011;5754;43.726;7.416;2023-05-18T16:01:05;2.87;;;1.40;;